Tuesday, November 21, 2017, 10:48 AM EST
Back to Local

KRMN, Stafford, Stafford Regional Airport

Location: Fredericksburg, VA, United States Lat: 38.398
Local Time: 10:48 AM EST (15:48 GMT) Lon: -77.455
Time Zone: US/Eastern Elev: 213 ft

Show me the last for .
Show Coded

Time T Td Feel RH Dir Speed Gust Alt SLP Vis Weather Sky Remarks
2017-11-21 10:15 54 29 - 37 190° 14 18 30.18 - 10 CLR None
2017-11-21 09:55 53 29 - 39 200° 12 23 30.18 - 10 CLR None
2017-11-21 09:35 50 28 - 42 210° 12 22 30.19 - 10 CLR None
2017-11-21 09:15 49 31 46 48 210° 8 - 30.19 - 10 CLR None
2017-11-21 08:55 46 32 45 57 190° 3 - 30.20 - 10 CLR None
2017-11-21 08:35 42 32 40 68 160° 3 - 30.20 - 10 CLR None
2017-11-21 08:15 38 31 - 76 - Calm - 30.20 - 10 CLR None
2017-11-21 07:55 33 30 - 90 - Calm - 30.20 - 10 CLR None
2017-11-21 07:35 32 30 - 94 - Calm - 30.20 - 10 CLR None
2017-11-21 07:15 28 28 - 100 - Calm - 30.20 - 10 CLR None
2017-11-21 06:55 29 29 - 97 - Calm - 30.20 - 10 CLR 6-hr Min Temp (7am): 27.0°F
6-hr Max Temp (7am): 33.6°F
2017-11-21 06:35 31 28 - 86 - Calm - 30.20 - 10 CLR None
2017-11-21 06:15 31 28 - 90 - Calm - 30.19 - 10 CLR None
2017-11-21 05:55 32 27 - 83 - Calm - 30.19 - 10 CLR None
2017-11-21 05:35 31 27 - 84 - Calm - 30.19 - 10 CLR None
2017-11-21 05:15 33 28 - 78 - Calm - 30.19 - 10 CLR None
2017-11-21 04:55 33 28 - 78 - Calm - 30.19 - 10 CLR None
2017-11-21 04:35 33 28 - 80 - Calm - 30.19 - 10 CLR None
2017-11-21 04:15 33 28 - 80 - Calm - 30.19 - 10 CLR None
2017-11-21 03:55 32 27 28 81 160° 5 - 30.19 - 10 CLR None
2017-11-21 03:35 32 27 - 81 - Calm - 30.19 - 10 CLR None
2017-11-21 03:15 29 26 - 90 - Calm - 30.20 - 10 CLR None
2017-11-21 02:55 30 27 - 85 - Calm - 30.20 - 10 CLR None
2017-11-21 02:35 29 28 - 94 - Calm - 30.21 - 10 CLR None
2017-11-21 02:15 28 27 - 95 - Calm - 30.21 - 10 CLR None
2017-11-21 01:55 28 28 - 100 - Calm - 30.22 - 10 CLR None
2017-11-21 01:35 30 27 - 85 - Calm - 30.22 - 10 CLR None
2017-11-21 01:15 28 27 - 93 - Calm - 30.23 - 10 CLR None
2017-11-21 00:55 29 27 - 90 - Calm - 30.23 - 10 CLR 6-hr Min Temp (1am): 28.9°F
6-hr Max Temp (1am): 36.0°F
24-hr Min Temp (1am): 24.8°F
24-hr Max Temp (1am): 52.0°F
2017-11-21 00:35 31 26 - 81 - Calm - 30.24 - 10 CLR None
2017-11-21 00:15 30 26 - 84 - Calm - 30.23 - 10 CLR None
2017-11-20 23:55 30 26 - 86 - Calm - 30.24 - 10 CLR None
2017-11-20 23:35 32 26 - 79 - Calm - 30.24 - 10 CLR None
2017-11-20 23:15 31 26 - 80 - Calm - 30.24 - 10 CLR None
2017-11-20 22:55 34 26 - 70 - Calm - 30.24 - 10 CLR None
2017-11-20 22:35 31 26 - 79 - Calm - 30.24 - 10 CLR None
2017-11-20 22:15 31 26 - 80 - Calm - 30.24 - 10 CLR None
2017-11-20 21:55 31 26 - 80 - Calm - 30.24 - 10 CLR None
2017-11-20 21:35 32 26 - 78 - Calm - 30.24 - 10 CLR None
2017-11-20 21:15 33 26 - 76 - Calm - 30.24 - 10 CLR None
2017-11-20 20:55 32 26 - 77 - Calm - 30.24 - 10 CLR None
2017-11-20 20:35 30 26 - 84 - Calm - 30.24 - 10 CLR None
2017-11-20 20:15 33 27 - 77 - Calm - 30.24 - 10 CLR None
2017-11-20 19:55 33 26 - 77 - Calm - 30.24 - 10 CLR None
2017-11-20 19:35 34 26 - 73 - Calm - 30.23 - 10 CLR None
2017-11-20 19:15 33 28 - 79 - Calm - 30.23 - 10 CLR None
2017-11-20 18:55 36 26 - 67 - Calm - 30.22 - 10 CLR 6-hr Min Temp (7pm): 35.4°F
6-hr Max Temp (7pm): 52.0°F
2017-11-20 18:35 37 27 - 67 - Calm - 30.23 - 10 CLR None
2017-11-20 18:15 39 26 - 60 - Calm - 30.23 - 10 CLR None
2017-11-20 17:55 40 24 - 53 - Calm - 30.23 - 10 CLR None
2017-11-20 17:35 43 24 - 46 - Calm - 30.22 - 10 CLR None
2017-11-20 17:15 47 20 - 34 - Calm - 30.22 - 10 CLR None
2017-11-20 16:55 48 20 - 32 - Calm - 30.22 - 10 CLR None
2017-11-20 16:35 49 20 48 30 240° 3 - 30.22 - 10 CLR None
2017-11-20 16:15 50 19 - 29 250° 5 - 30.22 - 10 CLR None
2017-11-20 15:55 51 19 - 27 240° 6 - 30.22 - 10 CLR None
2017-11-20 15:35 51 20 - 29 210° 6 - 30.22 - 10 CLR None
2017-11-20 15:15 51 20 - 28 240° 3 - 30.21 - 10 CLR None
2017-11-20 14:55 51 20 - 29 230° 7 - 30.21 - 10 CLR None
2017-11-20 14:35 51 20 - 28 250° 6 17 30.22 - 10 CLR None
2017-11-20 14:15 52 20 - 28 250° 8 - 30.23 - 10 CLR None
2017-11-20 13:55 51 20 - 28 250° 7 16 30.23 - 10 CLR None
2017-11-20 13:35 51 21 - 30 250° 7 16 30.23 - 10 CLR None
2017-11-20 13:15 51 21 - 29 230° 7 - 30.23 - 10 CLR None
2017-11-20 12:55 50 20 - 30 230° 10 - 30.23 - 10 CLR 6-hr Min Temp (1pm): 24.8°F
6-hr Max Temp (1pm): 51.1°F
2017-11-20 12:35 49 20 45 30 250° 10 - 30.24 - 10 CLR None
2017-11-20 12:15 50 21 47 31 260° 6 - 30.25 - 10 CLR None
2017-11-20 11:55 48 20 45 32 230° 8 - 30.25 - 10 CLR None
2017-11-20 11:35 48 21 43 34 260° 9 - 30.26 - 10 CLR None
2017-11-20 11:15 46 21 44 36 240° 6 - 30.26 - 10 CLR None
2017-11-20 10:55 46 21 43 37 250° 6 - 30.26 - 10 CLR None

Support USWX by starting your Amazon purchase here.